sensor_id;sensor_type;location;lat;lon;timestamp;P1;durP1;ratioP1;P2;durP2;ratioP2
81336;SDS011;70799;48.000;10.584;2023-07-13T00:01:29;15.43;;;8.10;;
81336;SDS011;70799;48.000;10.584;2023-07-13T00:04:03;13.90;;;8.13;;
81336;SDS011;70799;48.000;10.584;2023-07-13T00:06:37;16.40;;;8.40;;
81336;SDS011;70799;48.000;10.584;2023-07-13T00:09:12;13.48;;;7.75;;
81336;SDS011;70799;48.000;10.584;2023-07-13T00:11:56;18.73;;;8.05;;
81336;SDS011;70799;48.000;10.584;2023-07-13T00:14:32;16.55;;;7.63;;
81336;SDS011;70799;48.000;10.584;2023-07-13T00:17:06;11.80;;;6.95;;
81336;SDS011;70799;48.000;10.584;2023-07-13T00:19:39;13.02;;;6.97;;
81336;SDS011;70799;48.000;10.584;2023-07-13T00:22:12;11.23;;;5.28;;
81336;SDS011;70799;48.000;10.584;2023-07-13T00:24:45;12.05;;;5.90;;
81336;SDS011;70799;48.000;10.584;2023-07-13T00:27:19;14.25;;;7.10;;
81336;SDS011;70799;48.000;10.584;2023-07-13T00:29:53;15.25;;;6.88;;
81336;SDS011;70799;48.000;10.584;2023-07-13T00:32:26;13.50;;;7.03;;
81336;SDS011;70799;48.000;10.584;2023-07-13T00:35:02;12.98;;;6.53;;
81336;SDS011;70799;48.000;10.584;2023-07-13T00:37:36;13.82;;;6.82;;
81336;SDS011;70799;48.000;10.584;2023-07-13T00:40:11;12.93;;;6.20;;
81336;SDS011;70799;48.000;10.584;2023-07-13T00:42:45;11.07;;;6.15;;
81336;SDS011;70799;48.000;10.584;2023-07-13T00:47:53;12.57;;;6.15;;
81336;SDS011;70799;48.000;10.584;2023-07-13T00:50:28;10.48;;;5.78;;
81336;SDS011;70799;48.000;10.584;2023-07-13T00:53:01;11.80;;;6.13;;
81336;SDS011;70799;48.000;10.584;2023-07-13T00:55:35;10.98;;;5.82;;
81336;SDS011;70799;48.000;10.584;2023-07-13T00:58:09;11.30;;;5.65;;
81336;SDS011;70799;48.000;10.584;2023-07-13T01:00:43;9.30;;;5.47;;
81336;SDS011;70799;48.000;10.584;2023-07-13T01:03:19;8.07;;;5.43;;
81336;SDS011;70799;48.000;10.584;2023-07-13T01:05:53;10.35;;;5.07;;
81336;SDS011;70799;48.000;10.584;2023-07-13T01:08:26;10.75;;;5.57;;
81336;SDS011;70799;48.000;10.584;2023-07-13T01:11:00;11.05;;;5.30;;
81336;SDS011;70799;48.000;10.584;2023-07-13T01:13:34;9.13;;;5.03;;
81336;SDS011;70799;48.000;10.584;2023-07-13T01:16:12;11.70;;;5.68;;
81336;SDS011;70799;48.000;10.584;2023-07-13T01:18:53;10.23;;;4.90;;
81336;SDS011;70799;48.000;10.584;2023-07-13T01:21:29;10.80;;;5.68;;
81336;SDS011;70799;48.000;10.584;2023-07-13T01:24:06;13.05;;;6.15;;
81336;SDS011;70799;48.000;10.584;2023-07-13T01:26:39;10.20;;;5.30;;
81336;SDS011;70799;48.000;10.584;2023-07-13T01:29:12;12.07;;;5.85;;
81336;SDS011;70799;48.000;10.584;2023-07-13T01:31:46;7.57;;;4.60;;
81336;SDS011;70799;48.000;10.584;2023-07-13T01:34:19;8.60;;;4.70;;
81336;SDS011;70799;48.000;10.584;2023-07-13T01:36:52;10.27;;;5.18;;
81336;SDS011;70799;48.000;10.584;2023-07-13T01:39:26;8.48;;;4.82;;
81336;SDS011;70799;48.000;10.584;2023-07-13T01:41:59;9.70;;;4.72;;
81336;SDS011;70799;48.000;10.584;2023-07-13T01:44:34;8.43;;;4.18;;
81336;SDS011;70799;48.000;10.584;2023-07-13T01:47:07;8.40;;;4.60;;
81336;SDS011;70799;48.000;10.584;2023-07-13T01:49:41;7.85;;;4.13;;
81336;SDS011;70799;48.000;10.584;2023-07-13T01:52:14;8.43;;;4.07;;
81336;SDS011;70799;48.000;10.584;2023-07-13T01:54:47;7.32;;;4.07;;
81336;SDS011;70799;48.000;10.584;2023-07-13T01:57:21;7.63;;;4.80;;
81336;SDS011;70799;48.000;10.584;2023-07-13T01:59:54;8.23;;;4.28;;
81336;SDS011;70799;48.000;10.584;2023-07-13T02:02:28;7.57;;;4.25;;
81336;SDS011;70799;48.000;10.584;2023-07-13T02:05:01;8.65;;;4.78;;
81336;SDS011;70799;48.000;10.584;2023-07-13T02:07:35;7.88;;;4.80;;
81336;SDS011;70799;48.000;10.584;2023-07-13T02:10:09;9.85;;;4.68;;
81336;SDS011;70799;48.000;10.584;2023-07-13T02:12:43;9.52;;;4.68;;
81336;SDS011;70799;48.000;10.584;2023-07-13T02:15:18;11.57;;;5.10;;
81336;SDS011;70799;48.000;10.584;2023-07-13T02:17:52;7.57;;;4.68;;
81336;SDS011;70799;48.000;10.584;2023-07-13T02:20:25;9.65;;;5.47;;
81336;SDS011;70799;48.000;10.584;2023-07-13T02:22:59;12.05;;;5.25;;
81336;SDS011;70799;48.000;10.584;2023-07-13T02:25:38;10.90;;;5.35;;
81336;SDS011;70799;48.000;10.584;2023-07-13T02:28:12;8.63;;;4.80;;
81336;SDS011;70799;48.000;10.584;2023-07-13T02:30:48;10.57;;;5.20;;
81336;SDS011;70799;48.000;10.584;2023-07-13T02:33:22;10.80;;;5.28;;
81336;SDS011;70799;48.000;10.584;2023-07-13T02:35:57;10.32;;;5.60;;
81336;SDS011;70799;48.000;10.584;2023-07-13T02:38:33;11.52;;;5.90;;
81336;SDS011;70799;48.000;10.584;2023-07-13T02:41:08;9.73;;;5.05;;
81336;SDS011;70799;48.000;10.584;2023-07-13T02:43:43;8.77;;;5.28;;
81336;SDS011;70799;48.000;10.584;2023-07-13T02:46:18;10.57;;;5.53;;
81336;SDS011;70799;48.000;10.584;2023-07-13T02:48:52;11.05;;;5.63;;
81336;SDS011;70799;48.000;10.584;2023-07-13T02:51:25;10.80;;;5.85;;
81336;SDS011;70799;48.000;10.584;2023-07-13T02:54:03;11.27;;;5.05;;
81336;SDS011;70799;48.000;10.584;2023-07-13T02:56:38;10.05;;;5.75;;
81336;SDS011;70799;48.000;10.584;2023-07-13T02:59:13;11.23;;;5.50;;
81336;SDS011;70799;48.000;10.584;2023-07-13T03:01:46;13.10;;;5.80;;
81336;SDS011;70799;48.000;10.584;2023-07-13T03:04:22;8.20;;;4.93;;
81336;SDS011;70799;48.000;10.584;2023-07-13T03:06:58;10.82;;;6.03;;
81336;SDS011;70799;48.000;10.584;2023-07-13T03:09:39;11.18;;;5.72;;
81336;SDS011;70799;48.000;10.584;2023-07-13T03:12:13;11.35;;;5.50;;
81336;SDS011;70799;48.000;10.584;2023-07-13T03:14:46;10.90;;;6.20;;
81336;SDS011;70799;48.000;10.584;2023-07-13T03:17:20;10.77;;;6.00;;
81336;SDS011;70799;48.000;10.584;2023-07-13T03:19:54;12.02;;;5.90;;
81336;SDS011;70799;48.000;10.584;2023-07-13T03:22:29;12.27;;;6.18;;
81336;SDS011;70799;48.000;10.584;2023-07-13T03:25:03;11.75;;;6.30;;
81336;SDS011;70799;48.000;10.584;2023-07-13T03:27:38;14.02;;;6.13;;
81336;SDS011;70799;48.000;10.584;2023-07-13T03:30:13;10.27;;;5.03;;
81336;SDS011;70799;48.000;10.584;2023-07-13T03:32:48;10.40;;;5.43;;
81336;SDS011;70799;48.000;10.584;2023-07-13T03:35:23;10.45;;;5.68;;
81336;SDS011;70799;48.000;10.584;2023-07-13T03:37:58;10.13;;;5.75;;
81336;SDS011;70799;48.000;10.584;2023-07-13T03:40:33;12.35;;;5.95;;
81336;SDS011;70799;48.000;10.584;2023-07-13T03:45:42;11.57;;;5.65;;
81336;SDS011;70799;48.000;10.584;2023-07-13T03:48:16;11.32;;;6.43;;
81336;SDS011;70799;48.000;10.584;2023-07-13T03:50:53;13.15;;;6.07;;
81336;SDS011;70799;48.000;10.584;2023-07-13T03:53:33;9.90;;;5.35;;
81336;SDS011;70799;48.000;10.584;2023-07-13T03:56:14;9.70;;;5.93;;
81336;SDS011;70799;48.000;10.584;2023-07-13T03:58:52;12.45;;;6.65;;
81336;SDS011;70799;48.000;10.584;2023-07-13T04:01:26;10.52;;;5.47;;
81336;SDS011;70799;48.000;10.584;2023-07-13T04:04:06;11.90;;;6.32;;
81336;SDS011;70799;48.000;10.584;2023-07-13T04:06:40;10.75;;;6.05;;
81336;SDS011;70799;48.000;10.584;2023-07-13T04:09:16;9.82;;;5.72;;
81336;SDS011;70799;48.000;10.584;2023-07-13T04:11:50;10.57;;;5.20;;
81336;SDS011;70799;48.000;10.584;2023-07-13T04:14:31;7.80;;;4.72;;
81336;SDS011;70799;48.000;10.584;2023-07-13T04:17:10;7.97;;;4.70;;
81336;SDS011;70799;48.000;10.584;2023-07-13T04:19:47;8.30;;;5.10;;
81336;SDS011;70799;48.000;10.584;2023-07-13T04:22:25;9.82;;;5.68;;
81336;SDS011;70799;48.000;10.584;2023-07-13T04:25:02;10.52;;;5.60;;
81336;SDS011;70799;48.000;10.584;2023-07-13T04:27:37;9.30;;;5.13;;
81336;SDS011;70799;48.000;10.584;2023-07-13T04:30:11;8.77;;;5.47;;
81336;SDS011;70799;48.000;10.584;2023-07-13T04:32:45;9.32;;;5.00;;
81336;SDS011;70799;48.000;10.584;2023-07-13T04:35:19;10.20;;;5.55;;
81336;SDS011;70799;48.000;10.584;2023-07-13T04:37:53;9.05;;;5.10;;
81336;SDS011;70799;48.000;10.584;2023-07-13T04:40:42;10.00;;;5.43;;
81336;SDS011;70799;48.000;10.584;2023-07-13T04:43:18;9.57;;;5.35;;
81336;SDS011;70799;48.000;10.584;2023-07-13T04:46:06;10.70;;;5.65;;
81336;SDS011;70799;48.000;10.584;2023-07-13T04:48:48;10.88;;;5.90;;
81336;SDS011;70799;48.000;10.584;2023-07-13T04:51:26;11.07;;;6.25;;
81336;SDS011;70799;48.000;10.584;2023-07-13T04:54:00;12.25;;;6.38;;
81336;SDS011;70799;48.000;10.584;2023-07-13T04:56:33;10.93;;;6.10;;
81336;SDS011;70799;48.000;10.584;2023-07-13T04:59:06;10.35;;;5.78;;
81336;SDS011;70799;48.000;10.584;2023-07-13T05:01:40;9.65;;;5.60;;
81336;SDS011;70799;48.000;10.584;2023-07-13T05:04:14;8.48;;;5.45;;
81336;SDS011;70799;48.000;10.584;2023-07-13T05:06:50;10.07;;;5.63;;
81336;SDS011;70799;48.000;10.584;2023-07-13T05:09:25;10.50;;;5.47;;
81336;SDS011;70799;48.000;10.584;2023-07-13T05:12:00;9.30;;;5.00;;
81336;SDS011;70799;48.000;10.584;2023-07-13T05:14:34;9.68;;;5.38;;
81336;SDS011;70799;48.000;10.584;2023-07-13T05:17:48;11.55;;;6.13;;
81336;SDS011;70799;48.000;10.584;2023-07-13T05:20:41;8.32;;;5.57;;
81336;SDS011;70799;48.000;10.584;2023-07-13T05:23:19;14.05;;;5.95;;
81336;SDS011;70799;48.000;10.584;2023-07-13T05:26:16;11.93;;;6.38;;
81336;SDS011;70799;48.000;10.584;2023-07-13T05:29:17;8.57;;;5.18;;
81336;SDS011;70799;48.000;10.584;2023-07-13T05:31:56;11.55;;;5.18;;
81336;SDS011;70799;48.000;10.584;2023-07-13T05:34:29;11.30;;;5.75;;
81336;SDS011;70799;48.000;10.584;2023-07-13T05:37:02;9.90;;;5.82;;
81336;SDS011;70799;48.000;10.584;2023-07-13T05:39:36;13.45;;;7.32;;
81336;SDS011;70799;48.000;10.584;2023-07-13T05:42:09;9.82;;;5.10;;
81336;SDS011;70799;48.000;10.584;2023-07-13T05:44:42;10.73;;;6.38;;
81336;SDS011;70799;48.000;10.584;2023-07-13T05:47:18;9.43;;;4.18;;
81336;SDS011;70799;48.000;10.584;2023-07-13T05:49:55;8.70;;;4.10;;
81336;SDS011;70799;48.000;10.584;2023-07-13T05:52:41;6.68;;;3.53;;
81336;SDS011;70799;48.000;10.584;2023-07-13T05:55:21;4.53;;;2.13;;
81336;SDS011;70799;48.000;10.584;2023-07-13T05:57:56;5.38;;;2.47;;
81336;SDS011;70799;48.000;10.584;2023-07-13T06:00:40;6.43;;;2.15;;
81336;SDS011;70799;48.000;10.584;2023-07-13T06:03:14;4.78;;;2.05;;
81336;SDS011;70799;48.000;10.584;2023-07-13T06:05:49;4.55;;;1.80;;
81336;SDS011;70799;48.000;10.584;2023-07-13T06:08:25;7.72;;;2.40;;
81336;SDS011;70799;48.000;10.584;2023-07-13T06:11:10;4.63;;;2.13;;
81336;SDS011;70799;48.000;10.584;2023-07-13T06:14:02;5.70;;;1.95;;
81336;SDS011;70799;48.000;10.584;2023-07-13T06:16:37;4.53;;;2.40;;
81336;SDS011;70799;48.000;10.584;2023-07-13T06:19:12;3.83;;;1.70;;
81336;SDS011;70799;48.000;10.584;2023-07-13T06:21:46;6.20;;;2.08;;
81336;SDS011;70799;48.000;10.584;2023-07-13T06:24:21;5.60;;;1.85;;
81336;SDS011;70799;48.000;10.584;2023-07-13T06:26:55;4.45;;;1.73;;
81336;SDS011;70799;48.000;10.584;2023-07-13T06:29:29;5.47;;;2.33;;
81336;SDS011;70799;48.000;10.584;2023-07-13T06:32:02;3.95;;;2.20;;
81336;SDS011;70799;48.000;10.584;2023-07-13T06:34:36;5.95;;;2.40;;
81336;SDS011;70799;48.000;10.584;2023-07-13T06:37:13;5.88;;;1.75;;
81336;SDS011;70799;48.000;10.584;2023-07-13T06:39:47;5.15;;;1.70;;
81336;SDS011;70799;48.000;10.584;2023-07-13T06:42:20;4.60;;;1.67;;
81336;SDS011;70799;48.000;10.584;2023-07-13T06:44:54;4.10;;;1.63;;
81336;SDS011;70799;48.000;10.584;2023-07-13T06:47:29;4.95;;;1.80;;
81336;SDS011;70799;48.000;10.584;2023-07-13T06:50:04;3.65;;;1.80;;
81336;SDS011;70799;48.000;10.584;2023-07-13T06:52:41;3.13;;;1.60;;
81336;SDS011;70799;48.000;10.584;2023-07-13T06:55:15;4.45;;;2.00;;
81336;SDS011;70799;48.000;10.584;2023-07-13T06:57:50;4.65;;;2.13;;
81336;SDS011;70799;48.000;10.584;2023-07-13T07:00:24;4.88;;;1.63;;
81336;SDS011;70799;48.000;10.584;2023-07-13T07:02:57;5.30;;;2.55;;
81336;SDS011;70799;48.000;10.584;2023-07-13T07:05:35;6.10;;;2.03;;
81336;SDS011;70799;48.000;10.584;2023-07-13T07:08:10;6.10;;;2.15;;
81336;SDS011;70799;48.000;10.584;2023-07-13T07:10:44;3.90;;;1.80;;
81336;SDS011;70799;48.000;10.584;2023-07-13T07:13:20;4.10;;;1.90;;
81336;SDS011;70799;48.000;10.584;2023-07-13T07:15:54;5.70;;;1.70;;
81336;SDS011;70799;48.000;10.584;2023-07-13T07:18:30;4.85;;;2.38;;
81336;SDS011;70799;48.000;10.584;2023-07-13T07:21:04;5.07;;;1.98;;
81336;SDS011;70799;48.000;10.584;2023-07-13T07:23:38;6.18;;;2.70;;
81336;SDS011;70799;48.000;10.584;2023-07-13T07:26:13;4.75;;;2.20;;
81336;SDS011;70799;48.000;10.584;2023-07-13T07:28:47;4.45;;;2.55;;
81336;SDS011;70799;48.000;10.584;2023-07-13T07:31:41;3.45;;;2.38;;
81336;SDS011;70799;48.000;10.584;2023-07-13T07:34:17;6.70;;;2.15;;
81336;SDS011;70799;48.000;10.584;2023-07-13T07:36:53;4.15;;;1.90;;
81336;SDS011;70799;48.000;10.584;2023-07-13T07:39:32;4.10;;;2.05;;
81336;SDS011;70799;48.000;10.584;2023-07-13T07:42:14;3.42;;;1.80;;
81336;SDS011;70799;48.000;10.584;2023-07-13T07:44:49;4.65;;;1.83;;
81336;SDS011;70799;48.000;10.584;2023-07-13T07:47:24;3.38;;;2.00;;
81336;SDS011;70799;48.000;10.584;2023-07-13T07:49:59;4.82;;;1.92;;
81336;SDS011;70799;48.000;10.584;2023-07-13T07:52:34;4.05;;;1.70;;
81336;SDS011;70799;48.000;10.584;2023-07-13T07:55:09;3.15;;;1.80;;
81336;SDS011;70799;48.000;10.584;2023-07-13T07:57:45;4.50;;;1.90;;
81336;SDS011;70799;48.000;10.584;2023-07-13T08:00:22;5.97;;;2.10;;
81336;SDS011;70799;48.000;10.584;2023-07-13T08:02:59;5.00;;;1.95;;
81336;SDS011;70799;48.000;10.584;2023-07-13T08:05:53;3.58;;;2.08;;
81336;SDS011;70799;48.000;10.584;2023-07-13T08:08:49;5.47;;;2.13;;
81336;SDS011;70799;48.000;10.584;2023-07-13T08:11:22;4.82;;;2.33;;
81336;SDS011;70799;48.000;10.584;2023-07-13T08:14:00;3.67;;;2.03;;
81336;SDS011;70799;48.000;10.584;2023-07-13T08:16:35;5.30;;;1.67;;
81336;SDS011;70799;48.000;10.584;2023-07-13T08:19:10;3.25;;;1.50;;
81336;SDS011;70799;48.000;10.584;2023-07-13T08:21:44;4.85;;;2.45;;
81336;SDS011;70799;48.000;10.584;2023-07-13T08:24:22;5.15;;;2.13;;
81336;SDS011;70799;48.000;10.584;2023-07-13T08:26:57;3.80;;;1.77;;
81336;SDS011;70799;48.000;10.584;2023-07-13T08:29:33;3.22;;;1.33;;
81336;SDS011;70799;48.000;10.584;2023-07-13T08:32:07;5.22;;;1.67;;
81336;SDS011;70799;48.000;10.584;2023-07-13T08:34:42;4.50;;;2.03;;
81336;SDS011;70799;48.000;10.584;2023-07-13T08:37:16;5.40;;;2.03;;
81336;SDS011;70799;48.000;10.584;2023-07-13T08:39:51;2.78;;;1.70;;
81336;SDS011;70799;48.000;10.584;2023-07-13T08:42:31;4.57;;;1.52;;
81336;SDS011;70799;48.000;10.584;2023-07-13T08:48:21;5.88;;;1.88;;
81336;SDS011;70799;48.000;10.584;2023-07-13T08:51:10;5.05;;;2.10;;
81336;SDS011;70799;48.000;10.584;2023-07-13T08:54:11;3.63;;;1.65;;
81336;SDS011;70799;48.000;10.584;2023-07-13T08:57:21;5.15;;;2.05;;
81336;SDS011;70799;48.000;10.584;2023-07-13T09:00:13;6.45;;;2.00;;
81336;SDS011;70799;48.000;10.584;2023-07-13T09:05:39;3.90;;;1.40;;
81336;SDS011;70799;48.000;10.584;2023-07-13T09:08:26;3.80;;;1.30;;
81336;SDS011;70799;48.000;10.584;2023-07-13T09:17:17;6.60;;;1.92;;
81336;SDS011;70799;48.000;10.584;2023-07-13T09:22:59;4.90;;;1.92;;
81336;SDS011;70799;48.000;10.584;2023-07-13T09:25:38;3.67;;;1.65;;
81336;SDS011;70799;48.000;10.584;2023-07-13T09:28:27;4.78;;;2.03;;
81336;SDS011;70799;48.000;10.584;2023-07-13T09:31:28;3.85;;;1.73;;
81336;SDS011;70799;48.000;10.584;2023-07-13T09:34:16;4.78;;;1.70;;
81336;SDS011;70799;48.000;10.584;2023-07-13T09:36:51;9.60;;;2.05;;
81336;SDS011;70799;48.000;10.584;2023-07-13T09:39:27;5.15;;;1.85;;
81336;SDS011;70799;48.000;10.584;2023-07-13T09:42:16;5.00;;;1.70;;
81336;SDS011;70799;48.000;10.584;2023-07-13T09:44:54;3.67;;;2.05;;
81336;SDS011;70799;48.000;10.584;2023-07-13T09:47:39;6.13;;;2.28;;
81336;SDS011;70799;48.000;10.584;2023-07-13T09:50:16;4.40;;;1.80;;
81336;SDS011;70799;48.000;10.584;2023-07-13T09:52:51;5.20;;;2.10;;
81336;SDS011;70799;48.000;10.584;2023-07-13T09:58:12;5.10;;;1.80;;
81336;SDS011;70799;48.000;10.584;2023-07-13T10:00:56;5.03;;;1.98;;
81336;SDS011;70799;48.000;10.584;2023-07-13T10:03:51;4.78;;;1.67;;
81336;SDS011;70799;48.000;10.584;2023-07-13T10:06:27;7.55;;;2.35;;
81336;SDS011;70799;48.000;10.584;2023-07-13T10:09:02;4.15;;;2.00;;
81336;SDS011;70799;48.000;10.584;2023-07-13T10:11:36;4.97;;;1.50;;
81336;SDS011;70799;48.000;10.584;2023-07-13T10:14:17;4.32;;;1.42;;
81336;SDS011;70799;48.000;10.584;2023-07-13T10:16:58;5.97;;;1.67;;
81336;SDS011;70799;48.000;10.584;2023-07-13T10:19:36;4.80;;;1.58;;
81336;SDS011;70799;48.000;10.584;2023-07-13T10:22:14;4.25;;;1.73;;
81336;SDS011;70799;48.000;10.584;2023-07-13T10:25:01;8.02;;;2.65;;
81336;SDS011;70799;48.000;10.584;2023-07-13T10:27:36;5.53;;;2.05;;
81336;SDS011;70799;48.000;10.584;2023-07-13T10:32:52;6.68;;;2.30;;
81336;SDS011;70799;48.000;10.584;2023-07-13T10:35:26;5.75;;;2.10;;
81336;SDS011;70799;48.000;10.584;2023-07-13T10:38:06;4.07;;;1.95;;
81336;SDS011;70799;48.000;10.584;2023-07-13T10:46:18;5.28;;;2.17;;
81336;SDS011;70799;48.000;10.584;2023-07-13T10:48:59;4.18;;;2.28;;
81336;SDS011;70799;48.000;10.584;2023-07-13T10:51:37;6.20;;;1.92;;
81336;SDS011;70799;48.000;10.584;2023-07-13T10:57:13;4.40;;;2.20;;
81336;SDS011;70799;48.000;10.584;2023-07-13T11:03:00;6.18;;;2.22;;
81336;SDS011;70799;48.000;10.584;2023-07-13T11:05:36;5.57;;;2.00;;
81336;SDS011;70799;48.000;10.584;2023-07-13T11:08:23;4.85;;;1.58;;
81336;SDS011;70799;48.000;10.584;2023-07-13T11:20:23;5.60;;;2.20;;
81336;SDS011;70799;48.000;10.584;2023-07-13T11:25:49;6.38;;;1.92;;
81336;SDS011;70799;48.000;10.584;2023-07-13T11:28:24;3.33;;;1.83;;
81336;SDS011;70799;48.000;10.584;2023-07-13T11:31:02;3.72;;;1.83;;
81336;SDS011;70799;48.000;10.584;2023-07-13T11:33:52;3.35;;;1.40;;
81336;SDS011;70799;48.000;10.584;2023-07-13T11:36:35;3.78;;;1.60;;
81336;SDS011;70799;48.000;10.584;2023-07-13T11:39:18;4.57;;;1.50;;
81336;SDS011;70799;48.000;10.584;2023-07-13T11:42:03;4.50;;;1.75;;
81336;SDS011;70799;48.000;10.584;2023-07-13T11:44:46;9.95;;;2.08;;
81336;SDS011;70799;48.000;10.584;2023-07-13T11:47:40;4.20;;;1.70;;
81336;SDS011;70799;48.000;10.584;2023-07-13T11:50:20;5.30;;;1.50;;
81336;SDS011;70799;48.000;10.584;2023-07-13T11:53:00;2.95;;;1.50;;
81336;SDS011;70799;48.000;10.584;2023-07-13T11:55:44;2.20;;;1.35;;
81336;SDS011;70799;48.000;10.584;2023-07-13T11:58:23;4.60;;;1.27;;
81336;SDS011;70799;48.000;10.584;2023-07-13T12:01:02;5.07;;;1.67;;
81336;SDS011;70799;48.000;10.584;2023-07-13T12:03:37;5.97;;;1.73;;
81336;SDS011;70799;48.000;10.584;2023-07-13T12:06:21;6.20;;;1.65;;
81336;SDS011;70799;48.000;10.584;2023-07-13T12:09:10;3.85;;;1.83;;
81336;SDS011;70799;48.000;10.584;2023-07-13T12:12:56;6.82;;;1.10;;
81336;SDS011;70799;48.000;10.584;2023-07-13T12:15:45;4.10;;;1.20;;
81336;SDS011;70799;48.000;10.584;2023-07-13T12:18:21;4.78;;;1.52;;
81336;SDS011;70799;48.000;10.584;2023-07-13T12:20:58;4.65;;;1.38;;
81336;SDS011;70799;48.000;10.584;2023-07-13T12:23:34;2.97;;;1.42;;
81336;SDS011;70799;48.000;10.584;2023-07-13T12:26:09;2.63;;;1.10;;
81336;SDS011;70799;48.000;10.584;2023-07-13T12:28:48;3.20;;;1.33;;
81336;SDS011;70799;48.000;10.584;2023-07-13T12:34:06;3.30;;;1.42;;
81336;SDS011;70799;48.000;10.584;2023-07-13T12:42:25;3.53;;;1.30;;
81336;SDS011;70799;48.000;10.584;2023-07-13T12:48:04;3.88;;;1.83;;
81336;SDS011;70799;48.000;10.584;2023-07-13T12:50:47;4.03;;;1.65;;
81336;SDS011;70799;48.000;10.584;2023-07-13T12:56:24;4.25;;;1.60;;
81336;SDS011;70799;48.000;10.584;2023-07-13T12:59:03;3.55;;;1.52;;
81336;SDS011;70799;48.000;10.584;2023-07-13T13:01:47;3.83;;;1.52;;
81336;SDS011;70799;48.000;10.584;2023-07-13T13:04:22;5.45;;;2.28;;
81336;SDS011;70799;48.000;10.584;2023-07-13T13:07:03;6.22;;;1.92;;
81336;SDS011;70799;48.000;10.584;2023-07-13T13:09:41;6.97;;;1.60;;
81336;SDS011;70799;48.000;10.584;2023-07-13T13:12:14;5.97;;;1.85;;
81336;SDS011;70799;48.000;10.584;2023-07-13T13:14:48;4.53;;;1.50;;
81336;SDS011;70799;48.000;10.584;2023-07-13T13:17:26;3.92;;;1.65;;
81336;SDS011;70799;48.000;10.584;2023-07-13T13:20:18;3.15;;;1.42;;
81336;SDS011;70799;48.000;10.584;2023-07-13T13:23:00;3.97;;;1.50;;
81336;SDS011;70799;48.000;10.584;2023-07-13T13:25:48;3.70;;;1.70;;
81336;SDS011;70799;48.000;10.584;2023-07-13T13:28:30;5.13;;;1.80;;
81336;SDS011;70799;48.000;10.584;2023-07-13T13:31:05;4.25;;;1.63;;
81336;SDS011;70799;48.000;10.584;2023-07-13T13:33:45;3.15;;;1.40;;
81336;SDS011;70799;48.000;10.584;2023-07-13T13:36:22;4.35;;;1.52;;
81336;SDS011;70799;48.000;10.584;2023-07-13T13:39:01;4.28;;;1.50;;
81336;SDS011;70799;48.000;10.584;2023-07-13T13:41:50;4.05;;;2.25;;
81336;SDS011;70799;48.000;10.584;2023-07-13T13:44:25;4.32;;;1.73;;
81336;SDS011;70799;48.000;10.584;2023-07-13T13:46:59;5.25;;;1.80;;
81336;SDS011;70799;48.000;10.584;2023-07-13T13:49:44;3.58;;;1.90;;
81336;SDS011;70799;48.000;10.584;2023-07-13T13:52:27;6.50;;;1.98;;
81336;SDS011;70799;48.000;10.584;2023-07-13T13:55:12;6.22;;;1.63;;
81336;SDS011;70799;48.000;10.584;2023-07-13T13:57:52;4.32;;;1.55;;
81336;SDS011;70799;48.000;10.584;2023-07-13T14:00:28;4.40;;;1.83;;
81336;SDS011;70799;48.000;10.584;2023-07-13T14:03:22;3.75;;;2.05;;
81336;SDS011;70799;48.000;10.584;2023-07-13T14:06:04;3.88;;;1.50;;
81336;SDS011;70799;48.000;10.584;2023-07-13T14:08:37;5.30;;;1.60;;
81336;SDS011;70799;48.000;10.584;2023-07-13T14:11:13;4.93;;;1.70;;
81336;SDS011;70799;48.000;10.584;2023-07-13T14:13:57;3.20;;;1.70;;
81336;SDS011;70799;48.000;10.584;2023-07-13T14:16:37;3.13;;;1.60;;
81336;SDS011;70799;48.000;10.584;2023-07-13T14:19:15;4.05;;;1.30;;
81336;SDS011;70799;48.000;10.584;2023-07-13T14:21:55;3.50;;;1.60;;
81336;SDS011;70799;48.000;10.584;2023-07-13T14:24:28;3.95;;;1.95;;
81336;SDS011;70799;48.000;10.584;2023-07-13T14:27:03;4.13;;;1.75;;
81336;SDS011;70799;48.000;10.584;2023-07-13T14:29:38;3.55;;;1.77;;
81336;SDS011;70799;48.000;10.584;2023-07-13T14:34:56;4.15;;;1.58;;
81336;SDS011;70799;48.000;10.584;2023-07-13T14:37:36;3.88;;;1.88;;
81336;SDS011;70799;48.000;10.584;2023-07-13T14:41:03;8.60;;;1.73;;
81336;SDS011;70799;48.000;10.584;2023-07-13T14:43:53;3.67;;;1.58;;
81336;SDS011;70799;48.000;10.584;2023-07-13T14:46:34;3.00;;;1.73;;
81336;SDS011;70799;48.000;10.584;2023-07-13T14:49:30;3.05;;;1.40;;
81336;SDS011;70799;48.000;10.584;2023-07-13T14:52:11;3.92;;;1.70;;
81336;SDS011;70799;48.000;10.584;2023-07-13T14:54:51;5.53;;;1.58;;
81336;SDS011;70799;48.000;10.584;2023-07-13T14:57:26;3.35;;;1.65;;
81336;SDS011;70799;48.000;10.584;2023-07-13T14:59:59;2.80;;;1.60;;
81336;SDS011;70799;48.000;10.584;2023-07-13T15:02:36;3.60;;;1.48;;
81336;SDS011;70799;48.000;10.584;2023-07-13T15:05:15;5.20;;;2.40;;
81336;SDS011;70799;48.000;10.584;2023-07-13T15:08:03;4.10;;;1.73;;
81336;SDS011;70799;48.000;10.584;2023-07-13T15:10:38;4.78;;;1.70;;
81336;SDS011;70799;48.000;10.584;2023-07-13T15:13:16;4.18;;;1.63;;
81336;SDS011;70799;48.000;10.584;2023-07-13T15:16:03;4.55;;;1.77;;
81336;SDS011;70799;48.000;10.584;2023-07-13T15:18:54;5.15;;;1.95;;
81336;SDS011;70799;48.000;10.584;2023-07-13T15:21:30;5.45;;;2.33;;
81336;SDS011;70799;48.000;10.584;2023-07-13T15:24:08;4.43;;;1.88;;
81336;SDS011;70799;48.000;10.584;2023-07-13T15:26:45;4.05;;;2.17;;
81336;SDS011;70799;48.000;10.584;2023-07-13T15:29:24;3.03;;;1.77;;
81336;SDS011;70799;48.000;10.584;2023-07-13T15:32:03;4.70;;;2.00;;
81336;SDS011;70799;48.000;10.584;2023-07-13T15:34:41;4.85;;;2.00;;
81336;SDS011;70799;48.000;10.584;2023-07-13T15:37:17;6.63;;;1.70;;
81336;SDS011;70799;48.000;10.584;2023-07-13T15:39:58;4.30;;;1.95;;
81336;SDS011;70799;48.000;10.584;2023-07-13T15:42:32;2.72;;;1.30;;
81336;SDS011;70799;48.000;10.584;2023-07-13T15:45:16;3.80;;;1.20;;
81336;SDS011;70799;48.000;10.584;2023-07-13T15:48:17;4.30;;;1.70;;
81336;SDS011;70799;48.000;10.584;2023-07-13T15:50:55;2.42;;;1.52;;
81336;SDS011;70799;48.000;10.584;2023-07-13T15:53:39;4.90;;;1.60;;
81336;SDS011;70799;48.000;10.584;2023-07-13T15:56:16;4.13;;;1.52;;
81336;SDS011;70799;48.000;10.584;2023-07-13T15:58:56;2.95;;;1.60;;
81336;SDS011;70799;48.000;10.584;2023-07-13T16:01:30;3.08;;;1.27;;
81336;SDS011;70799;48.000;10.584;2023-07-13T16:04:09;3.35;;;1.50;;
81336;SDS011;70799;48.000;10.584;2023-07-13T16:06:43;6.18;;;1.80;;
81336;SDS011;70799;48.000;10.584;2023-07-13T16:12:00;4.18;;;1.60;;
81336;SDS011;70799;48.000;10.584;2023-07-13T16:14:34;6.75;;;1.50;;
81336;SDS011;70799;48.000;10.584;2023-07-13T16:17:12;4.15;;;1.52;;
81336;SDS011;70799;48.000;10.584;2023-07-13T16:19:50;3.78;;;1.60;;
81336;SDS011;70799;48.000;10.584;2023-07-13T16:22:28;2.95;;;1.27;;
81336;SDS011;70799;48.000;10.584;2023-07-13T16:25:12;6.45;;;2.22;;
81336;SDS011;70799;48.000;10.584;2023-07-13T16:27:52;3.28;;;1.48;;
81336;SDS011;70799;48.000;10.584;2023-07-13T16:30:34;3.97;;;1.95;;
81336;SDS011;70799;48.000;10.584;2023-07-13T16:33:18;5.75;;;1.60;;
81336;SDS011;70799;48.000;10.584;2023-07-13T16:38:33;4.57;;;1.70;;
81336;SDS011;70799;48.000;10.584;2023-07-13T16:41:15;4.57;;;1.40;;
81336;SDS011;70799;48.000;10.584;2023-07-13T16:43:50;3.35;;;1.70;;
81336;SDS011;70799;48.000;10.584;2023-07-13T16:46:26;2.70;;;1.42;;
81336;SDS011;70799;48.000;10.584;2023-07-13T16:49:00;3.90;;;1.42;;